Time;durP1;ratioP1;P1;durP2;ratioP2;P2;SDS_P1;SDS_P2;PMS_P1;PMS_P2;Temp;Humidity;BMP_temperature;BMP_pressure;BME280_temperature;BME280_humidity;BME280_pressure;Samples;Min_cycle;Max_cycle;Signal;HPM_P1;HPM_P2
2022/01/17 00:00:23;;;;;;;4.05;0.40;;;7.30;95.30;;;;;;5017355;28;20107;-80
2022/01/17 00:02:52;;;;;;;2.55;0.43;;;7.30;95.30;;;;;;5033486;28;20046;-80
2022/01/17 00:05:19;;;;;;;5.25;0.52;;;7.30;95.30;;;;;;5033677;28;20046;-81
2022/01/17 00:07:46;;;;;;;3.03;0.40;;;7.30;95.20;;;;;;5017346;28;20144;-80
2022/01/17 00:10:15;;;;;;;1.38;0.80;;;7.30;95.20;;;;;;5017240;28;20460;-81
2022/01/17 00:12:45;;;;;;;2.33;0.50;;;7.30;95.20;;;;;;5017626;28;20099;-80
2022/01/17 00:15:44;;;;;;;3.17;0.40;;;7.30;95.20;;;;;;5001267;28;20108;-82
2022/01/17 00:20:40;;;;;;;2.45;0.65;;;7.30;95.20;;;;;;5018051;28;20041;-81
2022/01/17 00:23:07;;;;;;;3.15;0.55;;;7.30;95.20;;;;;;5033089;28;20133;-81
2022/01/17 00:25:35;;;;;;;1.73;1.00;;;7.20;95.20;;;;;;5016337;28;20060;-80
2022/01/17 00:28:02;;;;;;;2.63;0.57;;;7.20;95.20;;;;;;5016517;28;20053;-80
2022/01/17 00:30:29;;;;;;;2.75;0.60;;;7.20;95.20;;;;;;5016453;28;20053;-80
2022/01/17 00:32:56;;;;;;;4.32;0.90;;;7.20;95.20;;;;;;5016548;28;20045;-81
2022/01/17 00:35:24;;;;;;;5.45;0.90;;;7.20;95.20;;;;;;5033000;28;20127;-80
2022/01/17 00:37:52;;;;;;;2.28;0.80;;;7.20;95.20;;;;;;5032865;28;20052;-80
2022/01/17 00:40:20;;;;;;;4.60;0.95;;;7.30;95.20;;;;;;5032983;28;20057;-80
2022/01/17 00:42:47;;;;;;;4.85;1.05;;;7.30;95.10;;;;;;5016531;28;20564;-80
2022/01/17 00:45:15;;;;;;;2.88;0.88;;;7.30;95.10;;;;;;5016575;28;20452;-81
2022/01/17 00:47:42;;;;;;;4.10;1.40;;;7.30;95.10;;;;;;5016705;28;20064;-80
2022/01/17 00:50:10;;;;;;;3.25;1.20;;;7.30;95.00;;;;;;5032735;28;20551;-80
2022/01/17 00:52:37;;;;;;;6.35;1.58;;;7.30;95.00;;;;;;5000268;28;20064;-80
2022/01/17 00:55:04;;;;;;;5.55;1.15;;;7.30;95.00;;;;;;5016621;28;20056;-81
2022/01/17 00:57:31;;;;;;;4.97;1.40;;;7.30;95.00;;;;;;5016395;28;20943;-81
2022/01/17 00:59:59;;;;;;;4.40;1.45;;;7.30;95.00;;;;;;5016355;28;20053;-80
2022/01/17 01:02:26;;;;;;;4.00;1.40;;;7.30;95.00;;;;;;5016667;28;20456;-80
2022/01/17 01:04:53;;;;;;;3.72;1.52;;;7.30;95.00;;;;;;5015772;28;20049;-80
2022/01/17 01:07:20;;;;;;;4.15;1.02;;;7.20;95.00;;;;;;4999551;28;20481;-80
2022/01/17 01:10:01;;;;;;;4.93;1.35;;;7.30;95.00;;;;;;5015911;28;20049;-80
2022/01/17 01:12:28;;;;;;;5.28;1.33;;;7.30;95.00;;;;;;5017942;28;20053;-80
2022/01/17 01:14:56;;;;;;;7.18;2.35;;;7.20;95.00;;;;;;5015947;28;20478;-80
2022/01/17 01:18:14;;;;;;;6.88;2.10;;;7.20;95.00;;;;;;5015091;28;20140;-80
2022/01/17 01:28:13;;;;;;;7.00;2.03;;;7.20;94.80;;;;;;5017735;28;20056;-80
2022/01/17 01:30:44;;;;;;;7.57;1.88;;;7.20;94.80;;;;;;5015817;28;20563;-81
2022/01/17 01:33:16;;;;;;;7.20;2.83;;;7.20;94.80;;;;;;5016416;28;20053;-80
2022/01/17 01:35:46;;;;;;;6.88;1.70;;;7.20;94.70;;;;;;5016432;28;20041;-80
2022/01/17 01:38:13;;;;;;;4.13;1.20;;;7.20;94.70;;;;;;5016395;28;20539;-80
2022/01/17 01:40:43;;;;;;;6.38;1.35;;;7.20;94.90;;;;;;5015569;28;20045;-80
2022/01/17 01:43:10;;;;;;;4.95;1.20;;;7.20;94.70;;;;;;5015561;28;20056;-80
2022/01/17 01:45:37;;;;;;;3.90;1.20;;;7.10;94.60;;;;;;5015454;28;20038;-80
2022/01/17 01:48:05;;;;;;;5.22;1.25;;;7.10;94.90;;;;;;5015146;28;20073;-80
2022/01/17 01:50:32;;;;;;;6.65;1.13;;;7.10;94.70;;;;;;4998937;28;20494;-80
2022/01/17 01:53:00;;;;;;;4.65;1.00;;;7.10;94.70;;;;;;5015461;28;20388;-80
2022/01/17 01:55:27;;;;;;;3.92;1.02;;;7.10;94.70;;;;;;5015333;28;20512;-79
2022/01/17 01:57:54;;;;;;;6.45;0.95;;;7.00;94.60;;;;;;5015064;28;20398;-79
2022/01/17 02:00:21;;;;;;;7.78;1.02;;;7.00;94.60;;;;;;5015518;28;20053;-79
2022/01/17 02:02:48;;;;;;;3.92;0.70;;;7.00;94.60;;;;;;5031334;28;20049;-79
2022/01/17 02:05:15;;;;;;;4.22;0.90;;;7.00;94.50;;;;;;5014487;28;20056;-79
2022/01/17 02:07:46;;;;;;;2.75;0.63;;;7.00;94.40;;;;;;5030793;28;20046;-79
2022/01/17 02:10:13;;;;;;;4.90;0.88;;;7.00;94.30;;;;;;5030553;28;20104;-79
2022/01/17 02:12:41;;;;;;;6.90;0.90;;;7.00;94.20;;;;;;5014604;28;20390;-79
2022/01/17 02:15:12;;;;;;;4.10;0.70;;;7.00;94.10;;;;;;5014688;28;20095;-79
2022/01/17 02:17:45;;;;;;;6.18;1.30;;;7.00;94.10;;;;;;5030485;28;20493;-79
2022/01/17 02:20:22;;;;;;;6.78;1.10;;;7.00;94.10;;;;;;5035554;28;20077;-79
2022/01/17 02:22:50;;;;;;;4.38;0.80;;;7.00;94.10;;;;;;5014051;28;20042;-80
2022/01/17 02:25:18;;;;;;;7.40;0.57;;;6.90;94.10;;;;;;5014519;28;20107;-79
2022/01/17 02:27:46;;;;;;;3.50;0.73;;;6.90;94.20;;;;;;5013979;28;20052;-79
2022/01/17 02:30:16;;;;;;;4.40;0.60;;;6.90;94.20;;;;;;5031903;28;20052;-79
2022/01/17 02:32:43;;;;;;;3.88;0.40;;;6.90;94.10;;;;;;5014087;28;20064;-79
2022/01/17 02:35:15;;;;;;;1.70;0.40;;;6.90;94.10;;;;;;5030884;28;20045;-79
2022/01/17 02:37:44;;;;;;;1.88;0.32;;;6.90;94.10;;;;;;5032166;28;20045;-79
2022/01/17 02:40:14;;;;;;;3.25;0.50;;;6.90;94.10;;;;;;5018803;28;20051;-79
2022/01/17 02:42:41;;;;;;;3.58;0.30;;;6.90;94.10;;;;;;5034878;28;20037;-79
2022/01/17 02:45:30;;;;;;;4.70;0.65;;;6.90;94.10;;;;;;5018659;28;20452;-79
2022/01/17 02:48:08;;;;;;;5.38;1.10;;;6.90;94.00;;;;;;5035060;28;20125;-79
2022/01/17 02:50:36;;;;;;;2.25;0.50;;;6.90;93.80;;;;;;5018631;28;20042;-79
2022/01/17 02:53:08;;;;;;;3.10;0.63;;;6.90;93.80;;;;;;5018615;28;20049;-79
2022/01/17 02:55:36;;;;;;;6.68;0.75;;;6.90;94.10;;;;;;5034971;28;20052;-79
2022/01/17 02:58:04;;;;;;;2.75;0.57;;;6.90;93.70;;;;;;5018760;28;20064;-79
2022/01/17 03:00:31;;;;;;;4.13;0.40;;;7.00;93.70;;;;;;5018440;28;20095;-79
2022/01/17 03:02:58;;;;;;;2.88;0.50;;;6.90;93.60;;;;;;5018583;28;20084;-79
2022/01/17 03:05:28;;;;;;;9.10;0.90;;;7.00;93.50;;;;;;5018807;28;20045;-80
2022/01/17 03:07:54;;;;;;;3.88;0.57;;;7.00;93.40;;;;;;5002079;28;20132;-79
2022/01/17 03:10:39;;;;;;;1.88;0.30;;;6.90;93.30;;;;;;5018072;28;20091;-80
2022/01/17 03:13:09;;;;;;;5.82;0.60;;;6.90;93.50;;;;;;5017257;28;20046;-79
2022/01/17 03:15:36;;;;;;;2.15;0.52;;;6.90;93.50;;;;;;5017224;28;20045;-79
2022/01/17 03:18:04;;;;;;;3.42;0.50;;;6.80;93.40;;;;;;5017146;28;20057;-79
2022/01/17 03:20:31;;;;;;;4.85;0.43;;;6.80;93.40;;;;;;5018277;28;20092;-79
2022/01/17 03:22:58;;;;;;;4.65;0.50;;;6.80;93.40;;;;;;5017679;28;20049;-79
2022/01/17 03:25:29;;;;;;;4.38;0.70;;;6.80;93.40;;;;;;5001824;28;20045;-79
2022/01/17 03:27:56;;;;;;;2.45;0.47;;;6.70;93.30;;;;;;5018234;28;20577;-79
2022/01/17 03:30:23;;;;;;;2.17;0.52;;;6.60;93.30;;;;;;5034660;28;20148;-79
2022/01/17 03:32:50;;;;;;;5.43;0.45;;;6.60;93.40;;;;;;5017879;28;20072;-79
2022/01/17 03:35:20;;;;;;;5.18;0.60;;;6.50;93.40;;;;;;5018135;28;20045;-80
2022/01/17 03:37:47;;;;;;;3.28;0.70;;;6.40;93.40;;;;;;5034382;28;20551;-79
2022/01/17 03:40:15;;;;;;;5.57;0.60;;;6.40;93.50;;;;;;5017890;28;20498;-79
2022/01/17 03:42:41;;;;;;;4.28;0.55;;;6.30;93.50;;;;;;5033865;28;20045;-79
2022/01/17 03:45:09;;;;;;;4.15;0.75;;;6.20;93.50;;;;;;5017298;28;20042;-78
2022/01/17 03:47:38;;;;;;;3.70;0.73;;;6.20;93.60;;;;;;5033681;28;20675;-79
2022/01/17 03:50:08;;;;;;;3.83;0.70;;;6.20;93.60;;;;;;5017034;28;20408;-79
2022/01/17 03:52:35;;;;;;;1.38;0.20;;;6.10;93.60;;;;;;5017442;28;20107;-79
2022/01/17 03:55:02;;;;;;;3.28;0.40;;;6.10;93.70;;;;;;5033859;28;20116;-80
2022/01/17 03:57:29;;;;;;;2.65;0.60;;;6.00;93.70;;;;;;5017651;28;20040;-79
2022/01/17 03:59:57;;;;;;;2.13;0.20;;;6.00;93.80;;;;;;5017366;28;20045;-79
2022/01/17 04:02:24;;;;;;;1.25;0.30;;;5.90;93.80;;;;;;5033853;28;20045;-79
2022/01/17 04:04:52;;;;;;;2.15;0.40;;;5.90;93.90;;;;;;5017626;28;20041;-80
2022/01/17 04:07:19;;;;;;;5.28;0.50;;;5.90;93.80;;;;;;5017176;28;20057;-80
2022/01/17 04:09:46;;;;;;;7.97;0.80;;;5.80;93.80;;;;;;5017144;28;20099;-79
2022/01/17 04:12:15;;;;;;;2.90;1.00;;;5.80;93.80;;;;;;5001772;28;20052;-80
2022/01/17 04:14:44;;;;;;;2.92;0.40;;;5.90;93.80;;;;;;5017604;28;20049;-79
2022/01/17 04:17:11;;;;;;;3.63;0.45;;;5.80;93.80;;;;;;5016750;28;20053;-79
2022/01/17 04:19:38;;;;;;;3.92;0.45;;;5.80;93.80;;;;;;5016952;28;20045;-78
2022/01/17 04:22:05;;;;;;;6.82;1.20;;;5.80;93.80;;;;;;5017029;28;20509;-79
2022/01/17 04:24:32;;;;;;;3.03;0.65;;;5.70;93.70;;;;;;5000707;28;20123;-79
2022/01/17 04:26:59;;;;;;;3.22;0.30;;;5.70;93.80;;;;;;5016843;28;20064;-79
2022/01/17 04:29:26;;;;;;;3.95;0.65;;;5.70;93.80;;;;;;5016724;28;20795;-80
2022/01/17 04:31:53;;;;;;;4.88;0.55;;;5.70;93.80;;;;;;5016618;28;20054;-79
2022/01/17 04:34:20;;;;;;;4.38;0.70;;;5.60;94.10;;;;;;5016695;28;20132;-79
2022/01/17 04:36:47;;;;;;;3.38;0.70;;;5.70;93.90;;;;;;5000353;28;20049;-79
2022/01/17 04:39:16;;;;;;;5.32;0.80;;;5.70;93.80;;;;;;5016486;28;20049;-79
2022/01/17 04:41:46;;;;;;;7.13;1.23;;;5.80;93.70;;;;;;5016900;28;20072;-78
2022/01/17 04:46:58;;;;;;;4.95;0.88;;;5.80;93.60;;;;;;5032935;28;20116;-79
2022/01/17 04:49:25;;;;;;;7.43;0.50;;;5.80;93.60;;;;;;5000258;28;20115;-79
2022/01/17 04:51:54;;;;;;;3.45;0.55;;;5.80;93.70;;;;;;5016424;28;20054;-79
2022/01/17 04:54:39;;;;;;;6.70;0.73;;;5.80;93.70;;;;;;5016608;28;20045;-79
2022/01/17 04:57:08;;;;;;;3.28;0.45;;;5.80;93.70;;;;;;5018832;28;20050;-79
2022/01/17 04:59:35;;;;;;;4.03;0.55;;;5.90;93.60;;;;;;5016183;28;20041;-79
2022/01/17 05:02:03;;;;;;;4.68;1.05;;;5.90;93.60;;;;;;5015407;28;20042;-79
2022/01/17 05:04:30;;;;;;;6.63;0.75;;;5.90;93.60;;;;;;5016557;28;20042;-79
2022/01/17 05:06:57;;;;;;;6.85;0.75;;;5.80;93.50;;;;;;5016111;28;20052;-79
2022/01/17 05:09:24;;;;;;;3.78;0.80;;;5.90;93.50;;;;;;5016161;28;20045;-79
2022/01/17 05:11:52;;;;;;;4.28;0.50;;;5.90;93.60;;;;;;5020884;28;20041;-79
2022/01/17 05:14:19;;;;;;;5.78;0.85;;;5.90;93.60;;;;;;5014816;28;20562;-78
2022/01/17 05:16:55;;;;;;;4.22;0.65;;;5.90;93.60;;;;;;5036406;28;20095;-79
2022/01/17 05:22:07;;;;;;;4.80;0.80;;;5.80;93.60;;;;;;5044155;28;20404;-79
2022/01/17 05:24:34;;;;;;;4.18;0.40;;;5.70;93.60;;;;;;5006176;28;20065;-79
2022/01/17 05:27:02;;;;;;;4.75;0.70;;;5.70;93.70;;;;;;5038796;28;20049;-78
2022/01/17 05:29:29;;;;;;;5.07;0.70;;;5.60;93.80;;;;;;5038719;28;20050;-79
2022/01/17 05:31:56;;;;;;;2.90;0.50;;;5.60;93.90;;;;;;5038702;28;20072;-79
2022/01/17 05:34:23;;;;;;;2.42;0.40;;;5.50;93.90;;;;;;5038911;28;20049;-78
2022/01/17 05:36:50;;;;;;;3.95;0.40;;;5.40;94.00;;;;;;5055837;28;20499;-79
2022/01/17 05:39:17;;;;;;;6.57;0.60;;;5.40;94.30;;;;;;5055297;28;20047;-79
2022/01/17 05:41:45;;;;;;;2.55;0.75;;;5.40;94.10;;;;;;5038679;28;20098;-79
2022/01/17 05:44:12;;;;;;;1.00;0.40;;;5.30;94.10;;;;;;5055282;28;20036;-79
2022/01/17 05:46:39;;;;;;;7.88;1.27;;;5.30;94.20;;;;;;5038411;28;20527;-79
2022/01/17 05:49:07;;;;;;;3.88;0.70;;;5.30;94.20;;;;;;5022152;28;20167;-79
2022/01/17 05:51:33;;;;;;;4.10;1.20;;;5.30;94.20;;;;;;5022019;28;20037;-79
2022/01/17 05:54:00;;;;;;;4.47;1.23;;;5.20;94.20;;;;;;5022011;28;20040;-79
2022/01/17 05:56:27;;;;;;;7.28;1.17;;;5.20;94.30;;;;;;5038682;28;20040;-79
2022/01/17 05:58:54;;;;;;;4.85;1.25;;;5.20;94.30;;;;;;5005957;28;20048;-79
2022/01/17 06:01:22;;;;;;;3.03;1.00;;;5.10;94.30;;;;;;5054794;28;20048;-79
2022/01/17 06:03:49;;;;;;;6.80;1.23;;;5.10;94.30;;;;;;5054626;28;20040;-79
2022/01/17 06:06:16;;;;;;;4.50;0.93;;;5.10;94.40;;;;;;5021883;28;20040;-79
2022/01/17 06:08:43;;;;;;;4.53;1.10;;;5.10;94.40;;;;;;5037982;28;20098;-79
2022/01/17 06:11:10;;;;;;;4.85;1.20;;;5.10;94.40;;;;;;5037372;28;20041;-80
2022/01/17 06:13:38;;;;;;;3.95;1.00;;;5.10;94.70;;;;;;5037737;28;20124;-80
2022/01/17 06:16:05;;;;;;;2.25;0.70;;;5.10;94.50;;;;;;5054348;28;20489;-79
2022/01/17 06:18:32;;;;;;;9.43;1.48;;;5.10;94.50;;;;;;5037905;28;20056;-79
2022/01/17 06:20:59;;;;;;;3.83;0.93;;;5.10;94.60;;;;;;5021347;28;20102;-79
2022/01/17 06:23:26;;;;;;;7.43;1.65;;;5.10;94.60;;;;;;5037903;28;20093;-79
2022/01/17 06:25:57;;;;;;;7.80;2.05;;;5.10;94.60;;;;;;5022890;28;20041;-81
2022/01/17 06:28:25;;;;;;;6.05;1.88;;;5.10;94.60;;;;;;5037828;28;20044;-81
2022/01/17 06:30:52;;;;;;;5.72;1.92;;;5.10;94.60;;;;;;5021695;28;20063;-80
2022/01/17 06:33:19;;;;;;;4.68;2.28;;;5.10;94.90;;;;;;5037796;28;20098;-79
2022/01/17 06:35:47;;;;;;;5.00;2.00;;;5.10;94.60;;;;;;5037915;28;20511;-80
2022/01/17 06:38:14;;;;;;;8.68;2.70;;;5.10;94.70;;;;;;5021726;28;20049;-80
2022/01/17 06:40:41;;;;;;;8.30;2.60;;;5.10;94.70;;;;;;5037841;28;20686;-80
2022/01/17 06:43:10;;;;;;;5.65;2.72;;;5.10;95.00;;;;;;5021539;28;20110;-80
2022/01/17 06:45:38;;;;;;;8.45;3.03;;;5.10;94.70;;;;;;5037818;28;20044;-80
2022/01/17 06:48:06;;;;;;;6.05;2.67;;;5.10;94.80;;;;;;5021728;28;20753;-79
2022/01/17 06:50:33;;;;;;;5.55;2.63;;;5.10;94.80;;;;;;5038057;28;20469;-80
2022/01/17 06:53:01;;;;;;;6.70;2.97;;;5.10;94.80;;;;;;5021544;28;20438;-79
2022/01/17 06:55:28;;;;;;;11.18;3.10;;;5.10;94.80;;;;;;5037577;28;20098;-79
2022/01/17 06:57:55;;;;;;;8.68;3.53;;;5.10;94.90;;;;;;5021319;28;20054;-80
2022/01/17 07:00:22;;;;;;;9.75;3.90;;;5.10;95.00;;;;;;5054274;28;20119;-80
2022/01/17 07:02:52;;;;;;;10.80;4.68;;;5.10;95.00;;;;;;5054939;28;20043;-80
2022/01/17 07:05:19;;;;;;;10.20;4.38;;;5.20;95.00;;;;;;5037809;28;20048;-80
2022/01/17 07:07:46;;;;;;;11.02;4.60;;;5.20;95.00;;;;;;5005258;28;20397;-80
2022/01/17 07:10:13;;;;;;;14.85;5.78;;;5.30;95.00;;;;;;5037724;28;20044;-80
2022/01/17 07:12:40;;;;;;;9.20;4.88;;;5.30;94.90;;;;;;5053863;28;20534;-80
2022/01/17 07:15:08;;;;;;;10.55;4.68;;;5.40;94.90;;;;;;5054220;28;20564;-80
2022/01/17 07:17:36;;;;;;;8.90;5.22;;;5.40;94.90;;;;;;5020928;28;20076;-80
2022/01/17 07:20:04;;;;;;;11.63;5.00;;;5.50;94.90;;;;;;5037301;28;20048;-80
2022/01/17 07:22:32;;;;;;;9.88;5.20;;;5.50;94.90;;;;;;5037602;28;20055;-80
2022/01/17 07:25:00;;;;;;;11.15;6.00;;;5.50;94.90;;;;;;5039444;28;20139;-80
2022/01/17 07:27:32;;;;;;;10.57;6.22;;;5.60;94.90;;;;;;5026203;28;20047;-80
2022/01/17 07:29:59;;;;;;;14.88;6.85;;;5.60;94.80;;;;;;5024708;28;20075;-80
2022/01/17 07:32:26;;;;;;;12.45;7.95;;;5.70;94.80;;;;;;5040684;28;20051;-79
2022/01/17 07:34:53;;;;;;;18.67;8.15;;;5.70;94.80;;;;;;5057339;28;20106;-79
2022/01/17 07:37:20;;;;;;;13.93;7.43;;;5.70;94.80;;;;;;5057272;28;20565;-79
2022/01/17 07:39:51;;;;;;;10.60;6.20;;;5.80;94.80;;;;;;5024712;28;20041;-82
2022/01/17 07:42:21;;;;;;;14.55;7.65;;;5.80;94.80;;;;;;5008195;28;20049;-82
2022/01/17 07:44:54;;;;;;;10.73;6.60;;;5.80;94.90;;;;;;5040797;28;20086;-82
2022/01/17 07:47:41;;;;;;;15.45;7.90;;;5.90;94.90;;;;;;5041418;28;20157;-82
2022/01/17 07:50:13;;;;;;;15.35;8.27;;;5.90;95.10;;;;;;5040473;28;20049;-82
2022/01/17 07:52:41;;;;;;;12.37;7.43;;;6.00;94.90;;;;;;5040587;28;20052;-81
2022/01/17 07:55:09;;;;;;;17.88;8.48;;;6.00;94.90;;;;;;5057101;28;20098;-81
2022/01/17 07:57:38;;;;;;;16.00;7.72;;;6.10;94.90;;;;;;5040731;28;20102;-82
2022/01/17 08:00:08;;;;;;;16.75;7.78;;;6.10;94.80;;;;;;5039798;28;20048;-82
2022/01/17 08:02:50;;;;;;;17.85;8.98;;;6.10;94.80;;;;;;5058064;28;20044;-82
2022/01/17 08:05:20;;;;;;;16.55;8.40;;;6.20;94.90;;;;;;5024721;28;20037;-81
2022/01/17 08:07:47;;;;;;;16.98;7.50;;;6.20;94.80;;;;;;5024043;28;20127;-84
2022/01/17 08:10:16;;;;;;;13.98;8.32;;;6.30;94.80;;;;;;5024863;28;20050;-84
2022/01/17 08:12:47;;;;;;;16.05;7.50;;;6.30;94.80;;;;;;5041201;28;20049;-84
2022/01/17 08:15:16;;;;;;;11.95;7.40;;;6.30;94.80;;;;;;5040257;28;20053;-83
2022/01/17 08:17:46;;;;;;;14.90;7.78;;;6.30;94.80;;;;;;5040773;28;20048;-81
2022/01/17 08:20:15;;;;;;;20.17;9.60;;;6.30;94.80;;;;;;5056487;28;20076;-80
2022/01/17 08:22:45;;;;;;;17.10;8.77;;;6.40;94.80;;;;;;5040676;28;20500;-83
2022/01/17 08:25:12;;;;;;;14.45;8.55;;;6.40;94.80;;;;;;5041400;28;20040;-80
2022/01/17 08:27:39;;;;;;;16.10;7.82;;;6.40;94.80;;;;;;5040164;28;20043;-80
2022/01/17 08:30:07;;;;;;;16.52;9.07;;;6.40;94.80;;;;;;5039712;28;20051;-82
2022/01/17 08:32:55;;;;;;;14.40;7.32;;;6.40;94.80;;;;;;5015148;28;20428;-81
2022/01/17 08:35:22;;;;;;;12.52;6.80;;;6.30;94.80;;;;;;5023208;28;20135;-81
2022/01/17 08:37:49;;;;;;;15.65;7.35;;;6.30;94.90;;;;;;5056121;28;20040;-82
2022/01/17 08:40:20;;;;;;;13.77;7.10;;;6.30;94.90;;;;;;5039983;28;20094;-81
2022/01/17 08:42:47;;;;;;;11.40;6.40;;;6.40;94.90;;;;;;5023054;28;20048;-82
2022/01/17 08:45:16;;;;;;;13.35;6.40;;;6.40;94.90;;;;;;5038881;28;20508;-82
2022/01/17 08:48:05;;;;;;;13.25;6.35;;;6.50;94.80;;;;;;5058761;28;20037;-81
2022/01/17 08:50:33;;;;;;;16.33;7.47;;;6.60;94.80;;;;;;5023387;28;20458;-83
2022/01/17 08:53:00;;;;;;;18.25;7.43;;;6.60;94.70;;;;;;5040250;28;20147;-82
2022/01/17 08:55:27;;;;;;;15.57;7.13;;;6.60;94.70;;;;;;5040257;28;20115;-84
2022/01/17 08:57:55;;;;;;;13.20;6.55;;;6.60;94.60;;;;;;5040036;28;20048;-85
2022/01/17 09:00:33;;;;;;;14.00;6.72;;;6.60;94.60;;;;;;5040466;28;20045;-84
2022/01/17 09:03:19;;;;;;;14.35;5.95;;;6.70;94.60;;;;;;5042480;28;20048;-85
2022/01/17 09:05:51;;;;;;;13.68;5.75;;;6.70;94.60;;;;;;5040641;28;20071;-85
2022/01/17 09:08:19;;;;;;;12.45;5.85;;;6.70;94.60;;;;;;5039865;28;20575;-88
2022/01/17 09:10:51;;;;;;;15.85;6.32;;;6.70;94.60;;;;;;5040999;28;20055;-86
2022/01/17 09:13:18;;;;;;;11.80;5.63;;;6.80;94.60;;;;;;5007898;28;20147;-87
2022/01/17 09:15:45;;;;;;;10.80;4.40;;;6.80;94.60;;;;;;5039727;28;20480;-91
2022/01/17 09:18:14;;;;;;;8.45;4.68;;;6.80;94.60;;;;;;5039309;28;20100;-91
2022/01/17 09:20:44;;;;;;;12.10;4.47;;;6.80;94.60;;;;;;5040612;28;20044;-86
2022/01/17 09:23:11;;;;;;;10.55;4.32;;;6.90;94.60;;;;;;5039394;28;20048;-84
2022/01/17 09:25:39;;;;;;;10.48;5.45;;;6.90;94.60;;;;;;5039447;28;20161;-85
2022/01/17 09:28:06;;;;;;;13.55;4.65;;;6.90;94.60;;;;;;5039321;28;20512;-84
2022/01/17 09:30:33;;;;;;;12.73;4.40;;;6.90;94.60;;;;;;5039651;28;20048;-85
2022/01/17 09:33:00;;;;;;;12.13;4.43;;;6.90;94.60;;;;;;5023316;28;20864;-86
2022/01/17 09:35:28;;;;;;;9.25;3.80;;;7.00;94.60;;;;;;5023560;28;20051;-86
2022/01/17 09:37:56;;;;;;;8.15;3.45;;;7.00;94.60;;;;;;5039303;28;20055;-86
2022/01/17 09:40:23;;;;;;;9.60;3.70;;;7.00;94.60;;;;;;5023220;28;20055;-86
2022/01/17 09:42:50;;;;;;;8.52;3.20;;;7.00;94.50;;;;;;5039446;28;20472;-84
2022/01/17 09:45:20;;;;;;;9.45;3.67;;;7.10;94.60;;;;;;5038689;28;20040;-83
2022/01/17 09:47:48;;;;;;;12.00;4.10;;;7.10;94.50;;;;;;5037966;28;20051;-83
2022/01/17 09:50:20;;;;;;;8.75;3.08;;;7.10;94.50;;;;;;5038075;28;20059;-83
2022/01/17 09:52:51;;;;;;;5.38;2.70;;;7.20;94.50;;;;;;5038002;28;20049;-82
2022/01/17 09:55:22;;;;;;;8.77;2.95;;;7.20;94.50;;;;;;5037620;28;20095;-82
2022/01/17 09:57:55;;;;;;;9.82;4.15;;;7.20;94.50;;;;;;5037611;28;20044;-83
2022/01/17 10:00:26;;;;;;;7.40;3.17;;;7.30;94.40;;;;;;5037648;28;20044;-84
2022/01/17 10:02:57;;;;;;;8.40;3.38;;;7.30;94.40;;;;;;5037825;28;20076;-83
2022/01/17 10:05:26;;;;;;;8.55;3.55;;;7.30;94.40;;;;;;5037526;28;20044;-83
2022/01/17 10:08:09;;;;;;;9.30;3.38;;;7.30;94.40;;;;;;5021826;28;20040;-83
2022/01/17 10:10:40;;;;;;;10.52;3.95;;;7.40;94.30;;;;;;5054733;28;20047;-83
2022/01/17 10:13:18;;;;;;;6.70;3.17;;;7.30;94.30;;;;;;5038187;28;20135;-83
2022/01/17 10:16:23;;;;;;;7.47;2.97;;;7.40;94.30;;;;;;5054645;28;20049;-82
2022/01/17 10:19:01;;;;;;;8.13;3.17;;;7.40;94.30;;;;;;5038076;28;20484;-82
2022/01/17 10:21:46;;;;;;;10.20;3.78;;;7.40;94.30;;;;;;5038100;28;20045;-82
2022/01/17 10:24:24;;;;;;;7.38;2.78;;;7.40;94.30;;;;;;5038170;28;20075;-82
2022/01/17 10:35:30;;;;;;;10.43;3.10;;;7.40;94.30;;;;;;5054694;28;20048;-82
2022/01/17 10:38:18;;;;;;;8.77;2.58;;;7.40;94.30;;;;;;5054425;28;20049;-89
2022/01/17 10:41:00;;;;;;;10.25;4.15;;;7.50;94.30;;;;;;5039301;28;20409;-90
2022/01/17 10:43:34;;;;;;;13.60;2.97;;;7.50;94.30;;;;;;5038597;28;20049;-90
2022/01/17 10:46:12;;;;;;;6.28;2.50;;;7.50;94.30;;;;;;5038325;28;20044;-88
2022/01/17 10:48:45;;;;;;;7.78;2.10;;;7.50;94.30;;;;;;5038224;28;20075;-89
2022/01/17 10:51:14;;;;;;;9.57;2.17;;;7.50;94.40;;;;;;5054812;28;20400;-90
2022/01/17 10:53:42;;;;;;;8.45;2.30;;;7.60;94.40;;;;;;5038316;28;20558;-89
2022/01/17 10:56:10;;;;;;;6.95;2.17;;;7.60;94.40;;;;;;5038707;28;20575;-90
2022/01/17 10:58:39;;;;;;;7.53;2.25;;;7.70;94.40;;;;;;5038286;28;20135;-80
2022/01/17 11:01:11;;;;;;;6.57;1.80;;;7.70;94.40;;;;;;5041550;28;20044;-80
2022/01/17 11:03:42;;;;;;;9.05;1.77;;;7.80;94.40;;;;;;5058419;28;20044;-80
2022/01/17 11:06:15;;;;;;;10.15;2.30;;;7.90;94.30;;;;;;5058154;28;20044;-84
2022/01/17 11:08:42;;;;;;;;;;;7.90;94.30;;;;;;5042705;28;20058;-86
2022/01/17 11:11:10;;;;;;;5.13;1.63;;;7.90;94.30;;;;;;5042091;28;19955;-85
2022/01/17 11:13:43;;;;;;;4.32;1.00;;;7.90;94.30;;;;;;5022772;28;20041;-86
2022/01/17 11:16:12;;;;;;;;;;;8.00;94.30;;;;;;5038868;28;20048;-81
2022/01/17 11:18:43;;;;;;;3.88;1.20;;;8.00;94.30;;;;;;5037946;28;19927;-81
2022/01/17 11:21:14;;;;;;;8.18;1.92;;;8.10;94.30;;;;;;5037768;28;20073;-82
2022/01/17 11:23:45;;;;;;;4.20;1.55;;;8.10;94.20;;;;;;5021687;28;20075;-82
2022/01/17 11:26:13;;;;;;;7.90;1.98;;;8.10;94.20;;;;;;5037926;28;20041;-82
2022/01/17 11:28:42;;;;;;;7.80;1.88;;;8.20;94.10;;;;;;5021370;28;20107;-83
2022/01/17 11:31:14;;;;;;;9.82;1.83;;;8.20;94.10;;;;;;5021250;28;20136;-83
2022/01/17 11:33:47;;;;;;;7.90;1.95;;;8.20;94.20;;;;;;5038103;28;20107;-83
2022/01/17 11:36:16;;;;;;;6.68;1.50;;;8.30;94.20;;;;;;5021238;28;20049;-82
2022/01/17 11:38:47;;;;;;;7.50;1.50;;;8.30;94.10;;;;;;5021661;28;20114;-82
2022/01/17 11:41:47;;;;;;;10.60;1.20;;;8.30;94.10;;;;;;5021395;28;20158;-82
2022/01/17 11:44:14;;;;;;;8.50;1.65;;;8.40;94.40;;;;;;5024616;28;20049;-80
2022/01/17 11:47:02;;;;;;;9.50;1.35;;;8.40;94.10;;;;;;5026988;28;20037;-80
2022/01/17 11:49:37;;;;;;;6.63;1.30;;;8.50;94.10;;;;;;5004810;28;20036;-78
2022/01/17 11:52:10;;;;;;;3.92;1.27;;;8.50;94.10;;;;;;5037470;28;20041;-78
2022/01/17 11:54:44;;;;;;;6.00;2.17;;;8.60;94.10;;;;;;5038063;28;20132;-79
2022/01/17 11:57:21;;;;;;;8.02;1.23;;;8.60;94.00;;;;;;5020811;28;20053;-79
2022/01/17 11:59:50;;;;;;;9.70;2.40;;;8.70;94.00;;;;;;5020758;28;20501;-81
2022/01/17 12:02:45;;;;;;;6.72;1.85;;;8.70;93.90;;;;;;5036814;28;20460;-82
2022/01/17 12:05:13;;;;;;;5.70;1.05;;;8.80;93.90;;;;;;5018917;28;20386;-80
2022/01/17 12:07:43;;;;;;;9.35;1.10;;;8.80;94.00;;;;;;5036735;28;20045;-81
2022/01/17 12:10:14;;;;;;;7.32;1.08;;;8.90;93.90;;;;;;5020416;28;20680;-81
2022/01/17 12:12:43;;;;;;;3.47;1.00;;;8.90;93.90;;;;;;5037186;28;20106;-81
2022/01/17 12:15:13;;;;;;;4.45;0.73;;;8.90;93.80;;;;;;5020728;28;20048;-85
2022/01/17 12:17:41;;;;;;;4.50;0.80;;;8.90;93.80;;;;;;5017215;28;20057;-83
2022/01/17 12:20:09;;;;;;;5.75;0.95;;;9.00;93.80;;;;;;5018030;28;20150;-86
2022/01/17 12:22:39;;;;;;;6.68;1.60;;;9.00;93.80;;;;;;5033753;28;20444;-80
2022/01/17 12:25:24;;;;;;;4.97;1.05;;;9.00;93.70;;;;;;5033316;28;20041;-82
2022/01/17 12:28:01;;;;;;;6.32;1.25;;;9.10;93.60;;;;;;5017037;28;20041;-83
2022/01/17 12:30:45;;;;;;;5.00;0.82;;;9.10;93.60;;;;;;5017980;28;20049;-86
2022/01/17 12:33:34;;;;;;;7.18;0.80;;;9.20;93.50;;;;;;5017003;28;20045;-80
2022/01/17 12:36:25;;;;;;;10.98;2.15;;;9.30;93.50;;;;;;5034577;28;20051;-85
2022/01/17 12:39:07;;;;;;;10.27;1.63;;;9.30;93.30;;;;;;5020248;28;20386;-78
2022/01/17 12:41:37;;;;;;;7.65;1.65;;;9.30;93.20;;;;;;5016459;28;20041;-79
2022/01/17 12:44:25;;;;;;;9.63;1.17;;;9.30;93.30;;;;;;5016634;28;20108;-80
2022/01/17 12:46:55;;;;;;;6.68;0.82;;;9.30;93.30;;;;;;5016351;28;20041;-78
2022/01/17 12:49:23;;;;;;;7.10;1.00;;;9.30;93.30;;;;;;5016683;28;20057;-82
2022/01/17 12:51:54;;;;;;;12.63;1.27;;;9.30;93.30;;;;;;5017460;28;20041;-87
2022/01/17 12:54:24;;;;;;;7.55;1.30;;;9.30;93.20;;;;;;5017282;28;20068;-85
2022/01/17 12:56:54;;;;;;;7.93;1.30;;;9.30;93.20;;;;;;5033607;28;20512;-80
2022/01/17 12:59:23;;;;;;;11.40;2.42;;;9.30;93.20;;;;;;5033292;28;20060;-85
2022/01/17 13:01:57;;;;;;;18.63;2.05;;;9.30;93.10;;;;;;5017431;28;20401;-83
2022/01/17 13:04:26;;;;;;;15.05;1.73;;;9.40;92.90;;;;;;5017044;28;20042;-86
2022/01/17 13:06:53;;;;;;;9.82;1.30;;;9.40;93.00;;;;;;5017138;28;20401;-86
2022/01/17 13:09:24;;;;;;;11.45;1.40;;;9.40;93.00;;;;;;5000598;28;20113;-83
2022/01/17 13:11:55;;;;;;;7.60;1.85;;;9.40;92.90;;;;;;5039483;28;20063;-84
2022/01/17 13:14:23;;;;;;;14.65;3.22;;;9.50;92.70;;;;;;5029066;28;20049;-82
2022/01/17 13:16:51;;;;;;;6.80;1.58;;;9.40;92.60;;;;;;5018047;28;20044;-85
2022/01/17 13:19:19;;;;;;;12.13;1.70;;;9.40;92.80;;;;;;5022783;28;20052;-83
2022/01/17 13:21:49;;;;;;;7.78;1.25;;;9.40;92.70;;;;;;5038130;28;20051;-83
2022/01/17 13:24:34;;;;;;;13.07;1.33;;;9.50;92.80;;;;;;5039031;28;20048;-80
2022/01/17 13:27:06;;;;;;;9.95;1.58;;;9.50;92.70;;;;;;5038483;28;20040;-81
2022/01/17 13:29:38;;;;;;;6.47;1.35;;;9.50;92.70;;;;;;5038608;28;20051;-85
2022/01/17 13:32:08;;;;;;;5.22;0.93;;;9.50;92.80;;;;;;5038690;28;20052;-89
2022/01/17 13:34:35;;;;;;;13.57;1.95;;;9.50;92.80;;;;;;5027739;28;20044;-87